Time;durP1;ratioP1;P1;durP2;ratioP2;P2;SDS_P1;SDS_P2;PMS_P1;PMS_P2;Temp;Humidity;BMP_temperature;BMP_pressure;BME280_temperature;BME280_humidity;BME280_pressure;Samples;Min_cycle;Max_cycle;Signal;HPM_P1;HPM_P2
2022/05/21 00:01:57;;;;;;;2.53;2.33;;;;;;;15.73;77.61;99816.41;5071570;28;20206;-56
2022/05/21 00:04:25;;;;;;;4.47;2.83;;;;;;;15.66;77.70;99807.16;5071325;28;20196;-61
2022/05/21 00:06:52;;;;;;;5.90;2.90;;;;;;;15.60;77.40;99797.81;5071738;28;20196;-62
2022/05/21 00:09:19;;;;;;;5.97;2.73;;;;;;;15.66;78.32;99807.16;5071335;28;20196;-62
2022/05/21 00:11:46;;;;;;;3.83;2.57;;;;;;;15.57;78.59;99807.56;5071246;28;20196;-61
2022/05/21 00:14:13;;;;;;;4.20;3.00;;;;;;;15.55;79.19;99807.63;5071324;28;20246;-61
2022/05/21 00:16:40;;;;;;;7.70;2.90;;;;;;;15.48;79.69;99800.94;5078084;28;20201;-61
2022/05/21 00:19:07;;;;;;;5.43;2.97;;;;;;;15.45;80.15;99795.00;5091007;28;20290;-61
2022/05/21 00:21:35;;;;;;;5.90;3.13;;;;;;;15.50;80.09;99798.25;5091614;28;21341;-56
2022/05/21 00:24:02;;;;;;;4.53;3.20;;;;;;;15.43;79.20;99797.69;5091556;28;20580;-56
2022/05/21 00:26:29;;;;;;;3.97;2.83;;;;;;;15.38;79.94;99797.03;5091063;28;20203;-58
2022/05/21 00:28:56;;;;;;;3.43;3.07;;;;;;;15.40;80.08;99791.72;5091231;28;20195;-61
2022/05/21 00:31:23;;;;;;;5.77;3.03;;;;;;;15.28;80.38;99795.72;5091011;28;20199;-56
2022/05/21 00:33:51;;;;;;;4.67;3.20;;;;;;;15.24;82.11;99802.84;5090940;28;20223;-56
2022/05/21 00:36:18;;;;;;;4.33;3.13;;;;;;;15.17;83.13;99801.44;5091019;28;20200;-60
2022/05/21 00:38:47;;;;;;;7.43;3.20;;;;;;;15.22;83.15;99799.47;5090826;28;20191;-61
2022/05/21 00:41:15;;;;;;;6.20;3.47;;;;;;;15.17;84.08;99792.72;5090152;28;20203;-60
2022/05/21 00:43:46;;;;;;;4.43;3.63;;;;;;;15.10;84.47;99792.16;5091055;28;20632;-61
2022/05/21 00:46:16;;;;;;;5.90;3.20;;;;;;;15.12;84.62;99803.38;5090547;28;20322;-61
2022/05/21 00:48:44;;;;;;;4.07;3.17;;;;;;;15.07;85.66;99797.50;5090783;28;20211;-61
2022/05/21 00:51:15;;;;;;;4.10;3.30;;;;;;;15.12;85.40;99799.94;5090911;28;20195;-60
2022/05/21 00:53:45;;;;;;;3.77;2.70;;;;;;;15.10;85.58;99800.00;5090813;28;20681;-60
2022/05/21 00:56:15;;;;;;;3.10;2.90;;;;;;;15.11;84.89;99801.69;5090696;28;20191;-61
2022/05/21 01:01:29;;;;;;;5.80;2.97;;;;;;;15.11;83.13;99795.63;5090591;28;20276;-61
2022/05/21 01:03:56;;;;;;;5.30;2.80;;;;;;;15.09;83.17;99803.53;5090709;28;20191;-61
2022/05/21 01:06:24;;;;;;;6.33;2.93;;;;;;;15.05;82.97;99801.09;5090527;28;20658;-56
2022/05/21 01:08:51;;;;;;;2.70;2.50;;;;;;;15.01;82.82;99795.13;5090571;28;20195;-55
2022/05/21 01:11:20;;;;;;;8.07;2.73;;;;;;;15.08;82.89;99787.91;5090593;28;20218;-54
2022/05/21 01:13:51;;;;;;;7.80;3.23;;;;;;;15.02;83.98;99780.31;5090448;28;20649;-55
2022/05/21 01:16:18;;;;;;;3.83;2.77;;;;;;;14.89;85.36;99780.84;5090443;28;20199;-55
2022/05/21 01:18:45;;;;;;;4.00;2.70;;;;;;;14.84;86.13;99781.94;5090411;28;20195;-55
2022/05/21 01:21:12;;;;;;;5.40;3.10;;;;;;;14.76;87.55;99784.88;5090410;28;20667;-55
2022/05/21 01:23:40;;;;;;;4.70;3.10;;;;;;;14.78;88.04;99767.38;5090346;28;20582;-55
2022/05/21 01:26:19;;;;;;;3.57;3.17;;;;;;;14.76;87.81;99752.69;5090355;28;20294;-54
2022/05/21 01:28:46;;;;;;;3.67;3.03;;;;;;;14.78;87.83;99756.09;5089839;28;20190;-55
2022/05/21 01:31:13;;;;;;;4.87;3.20;;;;;;;14.81;88.39;99764.63;5090188;28;20202;-55
2022/05/21 01:33:44;;;;;;;4.33;3.00;;;;;;;14.90;87.98;99768.59;5090125;28;20734;-56
2022/05/21 01:36:13;;;;;;;3.57;3.27;;;;;;;14.96;87.63;99759.66;5090162;28;20199;-54
2022/05/21 01:38:43;;;;;;;4.77;3.17;;;;;;;14.93;87.79;99755.41;5090447;28;20221;-55
2022/05/21 01:41:10;;;;;;;3.40;2.90;;;;;;;14.95;88.44;99764.03;5090405;28;20192;-61
2022/05/21 01:46:22;;;;;;;3.93;3.13;;;;;;;14.85;90.64;99770.56;5090213;28;20624;-60
2022/05/21 01:48:49;;;;;;;3.73;3.33;;;;;;;14.75;91.59;99771.88;5090402;28;20207;-59
2022/05/21 01:51:16;;;;;;;5.63;3.23;;;;;;;14.71;91.92;99765.06;5091902;28;20237;-59
2022/05/21 01:53:45;;;;;;;3.77;2.93;;;;;;;14.68;92.47;99763.44;5094524;28;20245;-59
2022/05/21 01:56:14;;;;;;;4.70;3.60;;;;;;;14.68;92.82;99754.75;5094130;28;20199;-62
2022/05/21 01:58:42;;;;;;;5.07;3.00;;;;;;;14.74;92.99;99759.72;5094088;28;20195;-60
2022/05/21 02:01:10;;;;;;;3.30;3.00;;;;;;;14.73;91.00;99751.03;5094221;28;20639;-59
2022/05/21 02:03:37;;;;;;;4.10;3.70;;;;;;;14.76;89.29;99752.69;5093811;28;20203;-59
2022/05/21 02:06:05;;;;;;;5.63;3.30;;;;;;;14.89;87.17;99753.88;5093987;28;20206;-61
2022/05/21 02:08:32;;;;;;;3.20;2.70;;;;;;;14.90;87.55;99745.09;5093902;28;20199;-61
2022/05/21 02:11:00;;;;;;;3.43;3.10;;;;;;;14.93;87.97;99750.19;5093949;28;20207;-62
2022/05/21 02:13:29;;;;;;;5.10;3.10;;;;;;;14.84;85.68;99750.59;5093968;28;20222;-61
2022/05/21 02:15:57;;;;;;;4.33;3.03;;;;;;;14.78;85.36;99751.72;5093660;28;20188;-62
2022/05/21 02:18:24;;;;;;;3.47;3.00;;;;;;;14.71;85.14;99739.78;5093027;28;20202;-62
2022/05/21 02:20:52;;;;;;;3.30;3.00;;;;;;;14.63;85.81;99736.66;5093873;28;20210;-55
2022/05/21 02:23:20;;;;;;;3.07;2.87;;;;;;;14.53;86.22;99730.97;5093563;28;20218;-55
2022/05/21 02:25:47;;;;;;;4.70;3.23;;;;;;;14.67;85.78;99747.84;5093584;28;20196;-63
2022/05/21 02:28:17;;;;;;;5.23;3.80;;;;;;;14.67;85.29;99750.47;5093635;28;20279;-62
2022/05/21 02:30:45;;;;;;;9.57;3.47;;;;;;;14.51;85.16;99730.19;5093567;28;20199;-62
2022/05/21 02:33:12;;;;;;;5.27;3.10;;;;;;;14.61;85.43;99745.47;5093678;28;20205;-61
2022/05/21 02:35:39;;;;;;;4.53;2.87;;;;;;;14.59;85.64;99742.06;5093257;28;20223;-54
2022/05/21 02:40:50;;;;;;;4.03;2.87;;;;;;;14.62;85.65;99750.63;5093264;28;20775;-56
2022/05/21 02:43:18;;;;;;;5.03;2.33;;;;;;;14.63;85.27;99741.03;5093320;28;20282;-57
2022/05/21 02:45:45;;;;;;;2.70;2.50;;;;;;;14.59;85.66;99752.50;5093127;28;20223;-55
2022/05/21 02:48:12;;;;;;;5.07;2.83;;;;;;;14.51;84.13;99734.56;5093427;28;20681;-55
2022/05/21 02:50:39;;;;;;;3.03;2.33;;;;;;;14.55;82.72;99741.38;5093110;28;20203;-55
2022/05/21 02:53:09;;;;;;;2.30;2.20;;;;;;;14.55;80.83;99740.50;5093249;28;20214;-55
2022/05/21 02:55:36;;;;;;;3.57;2.60;;;;;;;14.51;80.48;99737.16;5092701;28;20233;-56
2022/05/21 02:58:03;;;;;;;3.03;2.67;;;;;;;14.48;80.28;99753.81;5087604;28;20198;-61
2022/05/21 03:00:32;;;;;;;2.70;2.03;;;;;;;14.35;81.21;99744.75;5072493;28;20697;-60
2022/05/21 03:03:00;;;;;;;4.33;2.30;;;;;;;14.35;81.10;99741.28;5080811;28;20219;-60
2022/05/21 03:05:29;;;;;;;3.47;2.80;;;;;;;14.32;81.13;99752.72;5090626;28;20219;-60
2022/05/21 03:07:56;;;;;;;4.97;3.40;;;;;;;14.28;81.51;99742.44;5090392;28;20226;-59
2022/05/21 03:10:26;;;;;;;3.70;3.40;;;;;;;14.31;81.46;99743.19;5090846;28;20215;-59
2022/05/21 03:12:56;;;;;;;4.27;3.90;;;;;;;14.29;81.98;99739.78;5090479;28;20218;-59
2022/05/21 03:15:27;;;;;;;4.70;3.67;;;;;;;14.38;81.84;99735.94;5088165;28;20223;-60
2022/05/21 03:17:55;;;;;;;4.17;3.53;;;;;;;14.43;82.38;99745.34;5091394;28;20237;-58
2022/05/21 03:20:23;;;;;;;2.97;2.77;;;;;;;14.48;81.36;99745.97;5087861;28;20253;-59
2022/05/21 03:22:50;;;;;;;4.93;2.80;;;;;;;14.51;80.70;99748.47;5091931;28;20223;-60
2022/05/21 03:25:18;;;;;;;2.80;2.60;;;;;;;14.56;81.06;99752.66;5091664;28;20211;-60
2022/05/21 03:27:45;;;;;;;3.10;2.90;;;;;;;14.60;79.30;99751.59;5091497;28;20237;-61
2022/05/21 03:30:15;;;;;;;3.00;2.70;;;;;;;14.54;78.70;99757.94;5091983;28;20266;-61
2022/05/21 03:32:42;;;;;;;3.60;3.20;;;;;;;14.64;77.83;99758.41;5091837;28;20234;-61
2022/05/21 03:35:12;;;;;;;4.93;3.53;;;;;;;14.71;76.25;99752.00;5091166;28;20225;-60
2022/05/21 03:37:40;;;;;;;2.97;2.60;;;;;;;14.74;75.76;99749.28;5092019;28;20226;-60
2022/05/21 03:40:10;;;;;;;3.37;2.63;;;;;;;14.86;74.59;99751.38;5091310;28;20219;-61
2022/05/21 03:42:38;;;;;;;4.87;3.40;;;;;;;14.99;73.93;99752.56;5091087;28;20310;-60
2022/05/21 03:45:06;;;;;;;3.53;2.70;;;;;;;15.12;73.49;99745.03;5091242;28;20231;-60
2022/05/21 03:47:34;;;;;;;3.67;2.77;;;;;;;15.26;72.44;99724.34;5088752;28;21556;-60
2022/05/21 03:50:01;;;;;;;4.03;3.43;;;;;;;16.54;67.02;99749.75;5089789;28;20217;-60
2022/05/21 03:52:29;;;;;;;3.50;3.00;;;;;;;17.96;61.07;99759.78;5089822;28;20233;-59
2022/05/21 03:54:56;;;;;;;5.07;3.00;;;;;;;19.40;55.08;99755.78;5089732;28;20219;-60
2022/05/21 03:57:23;;;;;;;3.30;2.87;;;;;;;20.90;50.30;99768.09;5090150;28;20775;-56
2022/05/21 03:59:50;;;;;;;6.22;2.80;;;;;;;22.44;45.77;99768.69;5089399;28;20222;-56
2022/05/21 04:02:17;;;;;;;3.00;2.70;;;;;;;24.01;41.77;99773.34;5088766;28;20233;-56
2022/05/21 04:04:44;;;;;;;5.53;3.38;;;;;;;25.21;39.80;99763.38;5091476;28;20218;-56
2022/05/21 04:07:12;;;;;;;6.38;3.75;;;;;;;26.23;37.19;99767.69;5090130;28;20252;-56
2022/05/21 04:09:40;;;;;;;5.85;3.42;;;;;;;26.87;35.51;99767.19;5087970;28;20597;-56
2022/05/21 04:12:07;;;;;;;4.60;3.80;;;;;;;27.53;34.45;99769.03;5091948;28;20195;-56
2022/05/21 04:14:34;;;;;;;3.90;3.45;;;;;;;28.23;33.07;99771.09;5090509;28;20707;-55
2022/05/21 04:17:03;;;;;;;4.63;3.60;;;;;;;28.96;32.13;99766.47;5091364;28;20205;-56
2022/05/21 04:19:31;;;;;;;3.88;2.85;;;;;;;29.37;30.78;99781.00;5090636;28;20205;-57
2022/05/21 04:21:58;;;;;;;3.15;2.88;;;;;;;29.50;30.85;99770.72;5091241;28;20278;-55
2022/05/21 04:24:25;;;;;;;3.58;3.10;;;;;;;29.81;30.02;99770.19;5091297;28;20195;-56
2022/05/21 04:26:54;;;;;;;5.68;2.80;;;;;;;29.90;29.71;99762.03;5091231;28;20667;-57
2022/05/21 04:29:21;;;;;;;2.85;2.67;;;;;;;30.80;28.96;99772.97;5090830;28;20504;-56
2022/05/21 04:31:48;;;;;;;3.17;2.90;;;;;;;31.24;28.30;99768.94;5090290;28;20206;-60
2022/05/21 04:34:15;;;;;;;4.32;3.15;;;;;;;32.05;27.63;99767.88;5091157;28;20697;-61
2022/05/21 04:36:42;;;;;;;3.38;3.17;;;;;;;32.94;26.15;99775.34;5090779;28;20191;-57
2022/05/21 04:39:09;;;;;;;3.47;3.17;;;;;;;32.93;26.48;99779.06;5091009;28;20202;-57
2022/05/21 04:41:36;;;;;;;3.80;3.50;;;;;;;32.95;25.92;99778.88;5090817;28;20202;-57
2022/05/21 04:44:07;;;;;;;5.82;3.03;;;;;;;32.98;26.14;99776.66;5090764;28;20210;-57
2022/05/21 04:46:35;;;;;;;4.78;4.10;;;;;;;33.52;25.47;99776.50;5090911;28;20693;-58
2022/05/21 04:49:02;;;;;;;4.28;3.78;;;;;;;33.80;25.15;99766.75;5090770;28;20294;-56
2022/05/21 04:51:29;;;;;;;3.47;3.20;;;;;;;33.52;25.21;99777.31;5090532;28;20281;-61
2022/05/21 04:53:56;;;;;;;5.70;4.50;;;;;;;33.00;25.78;99774.63;5090668;28;20199;-64
2022/05/21 04:56:23;;;;;;;5.45;3.28;;;;;;;33.55;25.57;99762.63;5090295;28;20277;-57
2022/05/21 04:58:50;;;;;;;4.50;3.53;;;;;;;33.96;25.30;99775.66;5090544;28;20698;-57
2022/05/21 05:01:18;;;;;;;5.28;3.47;;;;;;;34.45;24.50;99775.81;5089465;28;20194;-56
2022/05/21 05:03:45;;;;;;;4.93;3.15;;;;;;;33.46;25.47;99782.59;5088957;28;20655;-61
2022/05/21 05:06:12;;;;;;;7.05;3.90;;;;;;;32.60;25.96;99777.63;5087783;28;20245;-61
2022/05/21 05:08:39;;;;;;;3.67;3.38;;;;;;;32.33;26.26;99782.50;5088808;28;20215;-56
2022/05/21 05:11:06;;;;;;;3.00;2.80;;;;;;;32.33;26.77;99766.38;5086969;28;20221;-57
2022/05/21 05:13:33;;;;;;;5.88;3.80;;;;;;;32.07;26.70;99779.25;5087518;28;20203;-56
2022/05/21 05:16:00;;;;;;;3.50;3.20;;;;;;;32.24;27.00;99769.28;5088283;28;20222;-56
2022/05/21 05:18:30;;;;;;;3.33;2.83;;;;;;;33.17;25.96;99769.94;5087747;28;20200;-56
2022/05/21 05:20:57;;;;;;;4.13;3.35;;;;;;;33.99;24.85;99773.41;5089751;28;20248;-57
2022/05/21 05:23:24;;;;;;;5.80;3.30;;;;;;;33.56;25.56;99779.63;5090110;28;20225;-56
2022/05/21 05:25:52;;;;;;;4.28;3.40;;;;;;;32.88;26.10;99770.69;5089843;28;20217;-55
2022/05/21 05:28:20;;;;;;;3.67;3.08;;;;;;;33.35;26.02;99772.28;5088660;28;20217;-53
2022/05/21 05:30:48;;;;;;;4.32;3.40;;;;;;;33.89;25.55;99775.56;5089373;28;20203;-53
2022/05/21 05:33:15;;;;;;;6.25;3.00;;;;;;;33.81;25.06;99756.81;5089141;28;20589;-53
2022/05/21 05:35:43;;;;;;;6.57;3.20;;;;;;;33.63;25.08;99783.25;5087950;28;20229;-54
2022/05/21 05:38:12;;;;;;;3.58;3.17;;;;;;;33.25;25.60;99774.41;5083397;28;20211;-54
2022/05/21 05:40:43;;;;;;;3.63;3.40;;;;;;;33.36;26.29;99780.19;5081802;28;20198;-54
2022/05/21 05:43:10;;;;;;;5.40;3.58;;;;;;;33.30;26.15;99769.31;5088681;28;20218;-54
2022/05/21 05:45:37;;;;;;;3.67;2.70;;;;;;;32.52;25.97;99761.53;5088361;28;20215;-53
2022/05/21 05:48:05;;;;;;;3.47;3.28;;;;;;;32.13;26.44;99740.97;5087910;28;20578;-54
2022/05/21 05:50:32;;;;;;;5.72;3.80;;;;;;;32.72;26.28;99769.00;5086968;28;20293;-57
2022/05/21 05:53:02;;;;;;;3.60;3.30;;;;;;;32.58;26.46;99774.28;5086023;28;20679;-58
2022/05/21 05:55:30;;;;;;;3.47;3.15;;;;;;;32.72;25.79;99771.69;5087025;28;20223;-63
2022/05/21 05:57:57;;;;;;;4.57;3.22;;;;;;;32.69;25.64;99779.22;5086826;28;20664;-63
2022/05/21 06:00:24;;;;;;;4.88;2.72;;;;;;;31.74;26.85;99770.50;5084648;28;20200;-61
2022/05/21 06:03:01;;;;;;;7.30;3.22;;;;;;;31.73;26.80;99769.66;5085455;28;20203;-62
2022/05/21 06:05:30;;;;;;;10.85;2.90;;;;;;;32.33;26.22;99778.97;5086122;28;20283;-63
2022/05/21 06:07:59;;;;;;;4.90;3.10;;;;;;;32.56;25.26;99744.03;5087243;28;20195;-64
2022/05/21 06:10:30;;;;;;;4.70;2.28;;;;;;;32.83;25.61;99761.50;5088304;28;20606;-63
2022/05/21 06:12:58;;;;;;;5.30;2.80;;;;;;;33.24;24.97;99753.91;5088261;28;20194;-62
2022/05/21 06:15:25;;;;;;;4.28;2.78;;;;;;;33.35;24.90;99756.16;5088090;28;20651;-62
2022/05/21 06:17:53;;;;;;;2.83;2.63;;;;;;;33.50;24.90;99757.00;5088521;28;20195;-62
2022/05/21 06:20:22;;;;;;;7.90;2.67;;;;;;;33.06;25.03;99752.38;5088797;28;20667;-62
2022/05/21 06:22:50;;;;;;;2.65;2.45;;;;;;;33.12;24.93;99754.34;5085307;28;20519;-63
2022/05/21 06:25:21;;;;;;;2.47;2.28;;;;;;;32.61;25.33;99752.41;5087924;28;20190;-64
2022/05/21 06:27:51;;;;;;;2.60;2.40;;;;;;;32.49;25.84;99749.31;5088441;28;20210;-56
2022/05/21 06:30:21;;;;;;;2.88;2.55;;;;;;;32.33;25.57;99752.94;5087873;28;20203;-55
2022/05/21 06:32:48;;;;;;;5.97;2.40;;;;;;;32.58;25.43;99747.41;5089068;28;20203;-63
2022/05/21 06:35:17;;;;;;;6.18;2.22;;;;;;;32.43;25.69;99741.94;5089398;28;20219;-64
2022/05/21 06:37:44;;;;;;;3.33;2.35;;;;;;;31.94;26.43;99734.16;5091822;28;20261;-63
2022/05/21 06:40:13;;;;;;;3.83;2.55;;;;;;;31.97;26.86;99733.81;5086064;28;20680;-64
2022/05/21 06:42:40;;;;;;;5.97;2.65;;;;;;;31.56;27.42;99724.25;5073053;28;20283;-63
2022/05/21 06:45:10;;;;;;;3.50;2.88;;;;;;;30.82;28.13;99723.53;5072771;28;20224;-63
2022/05/21 06:47:37;;;;;;;4.28;2.70;;;;;;;30.76;28.26;99724.22;5082912;28;20223;-63
2022/05/21 06:50:06;;;;;;;3.08;2.88;;;;;;;30.05;29.19;99716.75;5086542;28;20225;-62
2022/05/21 06:52:35;;;;;;;4.20;2.50;;;;;;;30.33;29.24;99712.81;5091546;28;20266;-63
2022/05/21 06:55:02;;;;;;;3.20;2.40;;;;;;;30.57;29.32;99713.84;5091570;28;20247;-61
2022/05/21 06:57:29;;;;;;;4.03;2.53;;;;;;;30.85;28.90;99704.44;5091673;28;20223;-63
2022/05/21 06:59:56;;;;;;;6.97;2.28;;;;;;;31.05;28.52;99705.75;5092066;28;20215;-63
2022/05/21 07:02:25;;;;;;;6.53;3.05;;;;;;;31.32;28.09;99706.41;5091386;28;20222;-63
2022/05/21 07:07:43;;;;;;;3.28;2.40;;;;;;;31.47;27.42;99693.94;5087897;28;20217;-63
2022/05/21 07:10:13;;;;;;;5.93;2.65;;;;;;;31.15;27.89;99692.22;5090051;28;20218;-62
2022/05/21 07:12:40;;;;;;;3.08;2.35;;;;;;;31.16;27.85;99664.34;5091340;28;20217;-63
2022/05/21 07:15:08;;;;;;;3.03;2.20;;;;;;;31.63;27.28;99680.47;5091191;28;20678;-62
2022/05/21 07:17:37;;;;;;;3.15;2.42;;;;;;;31.81;26.92;99674.03;5090887;28;20713;-63
2022/05/21 07:20:06;;;;;;;4.88;2.42;;;;;;;31.22;27.68;99652.13;5091293;28;20293;-61
2022/05/21 07:22:34;;;;;;;3.00;2.42;;;;;;;30.75;28.00;99658.22;5091032;28;20266;-63
2022/05/21 07:25:03;;;;;;;6.97;2.58;;;;;;;30.95;28.08;99654.16;5089198;28;20226;-62
2022/05/21 07:27:30;;;;;;;4.07;3.35;;;;;;;30.90;27.78;99655.69;5091057;28;20631;-55
2022/05/21 07:29:57;;;;;;;3.97;2.22;;;;;;;30.94;27.62;99652.50;5091927;28;20229;-56
2022/05/21 07:32:27;;;;;;;2.47;2.13;;;;;;;31.44;27.08;99643.31;5089535;28;20223;-55
2022/05/21 07:34:59;;;;;;;3.83;2.20;;;;;;;31.97;26.54;99634.47;5089075;28;20199;-55
2022/05/21 07:37:26;;;;;;;3.78;2.47;;;;;;;32.55;25.55;99634.88;5086341;28;20211;-56
2022/05/21 07:39:53;;;;;;;3.22;2.90;;;;;;;32.91;25.44;99635.88;5088130;28;20217;-56
2022/05/21 07:42:21;;;;;;;4.45;2.35;;;;;;;33.48;24.76;99627.16;5091318;28;20301;-55
2022/05/21 07:44:48;;;;;;;3.72;2.55;;;;;;;33.87;24.60;99616.00;5091110;28;20239;-56
2022/05/21 07:47:14;;;;;;;9.68;2.88;;;;;;;34.63;24.05;99605.53;5090803;28;20215;-55
2022/05/21 07:49:41;;;;;;;4.60;2.28;;;;;;;34.28;23.75;99613.53;5090626;28;20235;-54
2022/05/21 07:52:10;;;;;;;5.10;2.70;;;;;;;34.99;23.51;99602.66;5089951;28;20227;-54
2022/05/21 07:54:37;;;;;;;9.02;2.42;;;;;;;35.45;22.58;99608.28;5089759;28;20626;-53
2022/05/21 07:57:05;;;;;;;6.78;2.35;;;;;;;34.86;24.19;99609.66;5090392;28;20613;-53
2022/05/21 07:59:32;;;;;;;4.43;2.28;;;;;;;35.50;22.41;99597.72;5090243;28;20238;-54
2022/05/21 08:01:58;;;;;;;2.25;2.05;;;;;;;36.22;21.71;99591.69;5090272;28;20219;-54
2022/05/21 08:04:25;;;;;;;4.85;2.35;;;;;;;35.80;21.65;99599.06;5090467;28;20219;-55
2022/05/21 08:06:52;;;;;;;3.00;1.90;;;;;;;35.80;21.10;99596.38;5090362;28;20595;-54
2022/05/21 08:09:21;;;;;;;2.15;1.85;;;;;;;36.05;20.76;99593.06;5089239;28;20216;-54
2022/05/21 08:11:48;;;;;;;2.00;1.90;;;;;;;36.56;21.26;99596.03;5090005;28;20227;-54
2022/05/21 08:14:15;;;;;;;4.80;1.90;;;;;;;36.82;20.41;99581.63;5089121;28;20226;-54
2022/05/21 08:16:42;;;;;;;2.05;1.80;;;;;;;36.30;20.85;99572.53;5090338;28;20223;-63
2022/05/21 08:19:12;;;;;;;5.15;2.17;;;;;;;36.11;21.08;99576.06;5091107;28;20191;-63
2022/05/21 08:21:39;;;;;;;5.72;2.45;;;;;;;36.15;21.49;99570.00;5091413;28;20250;-63
2022/05/21 08:26:59;;;;;;;4.13;2.40;;;;;;;35.08;22.10;99561.84;5091099;28;20199;-54
2022/05/21 08:29:27;;;;;;;5.63;2.35;;;;;;;34.72;22.30;99562.03;5091381;28;20256;-54
2022/05/21 08:31:54;;;;;;;6.93;2.42;;;;;;;33.89;22.57;99552.84;5091317;28;20202;-53
2022/05/21 08:34:21;;;;;;;5.10;2.40;;;;;;;33.52;23.55;99564.66;5090617;28;20202;-62
2022/05/21 08:36:49;;;;;;;5.10;2.67;;;;;;;32.41;24.77;99558.59;5090799;28;20310;-62
2022/05/21 08:39:16;;;;;;;4.72;2.35;;;;;;;31.86;25.40;99534.72;5090853;28;20217;-63
2022/05/21 08:41:51;;;;;;;3.97;2.30;;;;;;;31.85;25.00;99554.50;5090838;28;20258;-63
2022/05/21 08:44:29;;;;;;;5.15;2.33;;;;;;;31.89;24.92;99547.78;5090718;28;20237;-62
2022/05/21 08:47:02;;;;;;;6.47;2.70;;;;;;;32.13;24.88;99544.06;5091126;28;20628;-61
2022/05/21 08:49:33;;;;;;;8.35;7.03;;;;;;;32.04;24.28;99548.69;5090943;28;20201;-54
2022/05/21 08:52:14;;;;;;;7.47;3.53;;;;;;;32.54;23.57;99542.66;5091132;28;20191;-54
2022/05/21 08:54:44;;;;;;;6.90;2.60;;;;;;;32.03;23.88;99533.59;5079238;28;20202;-62
2022/05/21 08:57:16;;;;;;;3.05;1.77;;;;;;;32.03;23.71;99530.91;5090624;28;20226;-62
2022/05/21 08:59:50;;;;;;;3.67;2.00;;;;;;;31.96;23.86;99527.25;5090693;28;20788;-53
2022/05/21 09:02:19;;;;;;;3.50;2.00;;;;;;;32.04;23.89;99524.50;5091010;28;20197;-53
2022/05/21 09:04:46;;;;;;;7.05;2.13;;;;;;;32.03;23.76;99518.31;5089479;28;20290;-54
2022/05/21 09:07:19;;;;;;;7.50;2.38;;;;;;;32.46;24.44;99510.50;5090493;28;20195;-53
2022/05/21 09:09:58;;;;;;;3.08;2.20;;;;;;;32.95;23.99;99502.75;5090409;28;20195;-62
2022/05/21 09:12:39;;;;;;;3.03;2.30;;;;;;;32.92;24.08;99486.97;5090458;28;20195;-62
2022/05/21 09:15:10;;;;;;;3.92;2.20;;;;;;;32.79;25.48;99494.88;5082483;28;20211;-62
2022/05/21 09:17:42;;;;;;;2.22;2.00;;;;;;;32.78;24.89;99498.56;5089446;28;20219;-54
2022/05/21 09:20:19;;;;;;;2.28;2.00;;;;;;;32.64;23.28;99494.00;5090449;28;20597;-54
2022/05/21 09:22:56;;;;;;;3.60;2.20;;;;;;;32.93;23.49;99488.66;5090160;28;20194;-53
2022/05/21 09:25:26;;;;;;;2.47;2.17;;;;;;;33.23;23.24;99488.56;5090226;28;20663;-54
2022/05/21 09:28:02;;;;;;;4.43;1.92;;;;;;;33.42;24.55;99479.88;5090137;28;20187;-54
2022/05/21 09:30:33;;;;;;;3.17;2.10;;;;;;;33.31;24.22;99450.78;5090531;28;20195;-54
2022/05/21 09:33:02;;;;;;;3.20;2.20;;;;;;;33.31;22.89;99485.78;5090356;28;20635;-53
2022/05/21 09:35:31;;;;;;;3.10;2.30;;;;;;;32.86;22.97;99476.13;5090198;28;20199;-53
2022/05/21 09:38:13;;;;;;;3.03;1.70;;;;;;;33.37;22.53;99468.88;5090096;28;20227;-55
2022/05/21 09:40:42;;;;;;;2.35;2.13;;;;;;;33.24;22.85;99468.75;5090042;28;20201;-53
2022/05/21 09:46:19;;;;;;;5.70;2.20;;;;;;;33.21;22.24;99464.53;5089996;28;20249;-54
2022/05/21 09:48:46;;;;;;;3.22;2.88;;;;;;;33.43;21.95;99460.84;5089867;28;20211;-62
2022/05/21 09:51:29;;;;;;;2.38;2.17;;;;;;;33.80;21.26;99446.31;5090100;28;20199;-62
2022/05/21 09:53:57;;;;;;;3.65;3.22;;;;;;;33.45;21.92;99444.53;5089986;28;20682;-62
2022/05/21 09:56:26;;;;;;;2.92;2.20;;;;;;;33.60;20.52;99452.53;5089896;28;20223;-61
2022/05/21 09:59:09;;;;;;;1.90;1.80;;;;;;;33.77;20.03;99453.94;5089727;28;20201;-63
2022/05/21 10:01:41;;;;;;;1.77;1.52;;;;;;;33.77;19.70;99438.63;5089758;28;20190;-53
2022/05/21 10:04:20;;;;;;;3.35;1.95;;;;;;;33.54;19.39;99454.97;5089136;28;20194;-61
2022/05/21 10:06:52;;;;;;;1.92;1.83;;;;;;;33.44;20.22;99442.84;5089698;28;20709;-62
2022/05/21 10:12:15;;;;;;;2.38;2.17;;;;;;;33.07;20.51;99446.59;5091445;28;20596;-63
2022/05/21 10:14:49;;;;;;;2.13;1.85;;;;;;;32.88;20.39;99437.28;5093631;28;20289;-63
2022/05/21 10:17:28;;;;;;;2.97;1.98;;;;;;;33.12;21.00;99436.94;5093581;28;20721;-62
2022/05/21 10:20:00;;;;;;;3.05;1.70;;;;;;;33.25;20.96;99441.66;5093834;28;20518;-63
2022/05/21 10:22:39;;;;;;;3.45;2.50;;;;;;;32.99;22.30;99433.25;5093517;28;20188;-63
2022/05/21 10:25:09;;;;;;;2.15;1.98;;;;;;;32.78;21.53;99432.19;5093718;28;20206;-62
2022/05/21 10:28:07;;;;;;;2.72;1.90;;;;;;;32.46;21.71;99437.97;5093511;28;20209;-62
2022/05/21 10:30:49;;;;;;;3.15;2.50;;;;;;;32.20;21.74;99434.91;5093836;28;20606;-62
2022/05/21 10:33:33;;;;;;;2.55;1.90;;;;;;;32.13;22.29;99433.97;5093365;28;20206;-62
2022/05/21 10:36:18;;;;;;;1.90;1.80;;;;;;;31.90;21.82;99425.97;5093332;28;20203;-64
2022/05/21 10:39:18;;;;;;;3.10;2.40;;;;;;;31.83;22.37;99417.00;5093489;28;20655;-62
2022/05/21 10:42:01;;;;;;;4.00;2.63;;;;;;;31.83;23.01;99408.94;5086471;28;20597;-63
2022/05/21 10:44:42;;;;;;;6.68;2.50;;;;;;;31.69;22.40;99407.88;5092834;28;20570;-62
2022/05/21 10:47:25;;;;;;;2.88;2.60;;;;;;;31.56;22.65;99413.00;5093181;28;20222;-62
2022/05/21 10:50:28;;;;;;;14.82;13.30;;;;;;;31.14;22.63;99408.16;5093056;28;20195;-64
2022/05/21 10:53:17;;;;;;;3.03;2.38;;;;;;;30.71;22.96;99402.31;5093150;28;20663;-62
2022/05/21 10:55:53;;;;;;;2.60;2.10;;;;;;;30.58;23.17;99399.41;5093474;28;20576;-63
2022/05/21 10:58:37;;;;;;;2.00;1.90;;;;;;;30.46;23.61;99382.00;5092851;28;20229;-53
2022/05/21 11:01:13;;;;;;;5.68;2.28;;;;;;;30.62;23.51;99393.50;5092987;28;20202;-53
2022/05/21 11:04:07;;;;;;;3.95;1.88;;;;;;;30.62;23.22;99395.34;5092983;28;20540;-53
2022/05/21 11:07:01;;;;;;;5.43;2.60;;;;;;;30.51;23.19;99398.38;5085363;28;20194;-53
2022/05/21 11:09:36;;;;;;;5.72;1.80;;;;;;;30.48;23.12;99396.03;5092685;28;20587;-54
2022/05/21 11:12:08;;;;;;;4.47;2.08;;;;;;;30.58;22.83;99397.56;5092727;28;20201;-54
2022/05/21 11:14:42;;;;;;;5.95;3.33;;;;;;;30.69;23.04;99393.66;5092870;28;20216;-54
2022/05/21 11:17:34;;;;;;;4.00;2.47;;;;;;;30.85;23.04;99382.81;5092839;28;20218;-54
2022/05/21 11:20:04;;;;;;;3.90;2.33;;;;;;;31.06;24.00;99384.84;5092449;28;20210;-53
2022/05/21 11:22:38;;;;;;;3.08;2.22;;;;;;;31.28;23.03;99375.16;5092484;28;20195;-62
2022/05/21 11:25:14;;;;;;;1.80;1.60;;;;;;;31.20;22.12;99385.97;5091582;28;20234;-54
2022/05/21 11:27:49;;;;;;;1.67;1.58;;;;;;;31.09;22.28;99383.69;5092375;28;20195;-54
2022/05/21 11:30:19;;;;;;;1.92;1.83;;;;;;;31.25;22.56;99370.19;5092174;28;20199;-55
2022/05/21 11:38:34;;;;;;;3.35;2.00;;;;;;;31.16;22.88;99355.16;5081173;28;20227;-55
2022/05/21 11:46:56;;;;;;;2.38;1.90;;;;;;;31.24;23.13;99334.50;5088136;28;20230;-56
2022/05/21 11:49:40;;;;;;;3.00;2.22;;;;;;;31.16;23.26;99331.84;5092012;28;20195;-55
2022/05/21 11:52:51;;;;;;;2.28;2.08;;;;;;;31.05;23.71;99327.72;5092164;28;20751;-55
2022/05/21 11:55:22;;;;;;;2.13;2.00;;;;;;;31.01;23.30;99315.72;5078355;28;20630;-55
2022/05/21 11:57:52;;;;;;;3.88;1.77;;;;;;;31.11;23.51;99314.66;5091433;28;20269;-55
2022/05/21 12:00:56;;;;;;;2.13;2.03;;;;;;;31.02;23.05;99319.22;5091771;28;20252;-56
2022/05/21 12:03:25;;;;;;;4.05;1.65;;;;;;;30.97;22.24;99317.06;5091858;28;20206;-64
2022/05/21 12:06:14;;;;;;;4.03;1.48;;;;;;;30.99;22.69;99312.38;5090743;28;20202;-64
2022/05/21 12:08:48;;;;;;;1.65;1.55;;;;;;;30.91;22.83;99312.44;5088206;28;20279;-64
2022/05/21 12:11:46;;;;;;;1.92;1.45;;;;;;;30.92;22.68;99298.03;5091165;28;20197;-63
2022/05/21 12:14:28;;;;;;;1.70;1.60;;;;;;;30.99;22.90;99285.56;5083790;28;20329;-60
2022/05/21 12:17:03;;;;;;;2.30;1.80;;;;;;;30.86;23.47;99276.44;5082483;28;20591;-64
2022/05/21 12:20:06;;;;;;;2.25;1.40;;;;;;;30.85;23.84;99262.22;5087125;28;20264;-63
2022/05/21 12:22:42;;;;;;;1.90;1.80;;;;;;;30.72;23.54;99251.25;5090619;28;20272;-62